sensor_id;sensor_type;location;lat;lon;timestamp;temperature;humidity
74494;SHT31;62978;51.094;-115.362;2022-10-18T00:00:59;18.54;21.51
74494;SHT31;62978;51.094;-115.362;2022-10-18T00:03:26;18.05;21.99
74494;SHT31;62978;51.094;-115.362;2022-10-18T00:05:54;17.67;22.31
74494;SHT31;62978;51.094;-115.362;2022-10-18T00:08:22;17.34;23.02
74494;SHT31;62978;51.094;-115.362;2022-10-18T00:10:49;17.02;23.39
74494;SHT31;62978;51.094;-115.362;2022-10-18T00:13:17;16.65;23.92
74494;SHT31;62978;51.094;-115.362;2022-10-18T00:15:49;16.26;24.44
74494;SHT31;62978;51.094;-115.362;2022-10-18T00:18:21;15.90;25.07
74494;SHT31;62978;51.094;-115.362;2022-10-18T00:21:02;15.58;25.58
74494;SHT31;62978;51.094;-115.362;2022-10-18T00:23:33;15.23;26.14
74494;SHT31;62978;51.094;-115.362;2022-10-18T00:26:08;14.93;26.69
74494;SHT31;62978;51.094;-115.362;2022-10-18T00:28:39;14.63;27.13
74494;SHT31;62978;51.094;-115.362;2022-10-18T00:31:11;14.31;27.69
74494;SHT31;62978;51.094;-115.362;2022-10-18T00:33:55;14.01;28.00
74494;SHT31;62978;51.094;-115.362;2022-10-18T00:36:27;13.77;28.49
74494;SHT31;62978;51.094;-115.362;2022-10-18T00:38:57;13.47;29.15
74494;SHT31;62978;51.094;-115.362;2022-10-18T00:41:26;13.22;29.55
74494;SHT31;62978;51.094;-115.362;2022-10-18T00:43:57;13.00;29.96
74494;SHT31;62978;51.094;-115.362;2022-10-18T00:46:51;12.76;30.37
74494;SHT31;62978;51.094;-115.362;2022-10-18T00:49:34;12.55;30.70
74494;SHT31;62978;51.094;-115.362;2022-10-18T00:55:13;12.01;32.11
74494;SHT31;62978;51.094;-115.362;2022-10-18T00:57:40;11.80;32.49
74494;SHT31;62978;51.094;-115.362;2022-10-18T01:00:10;11.61;32.82
74494;SHT31;62978;51.094;-115.362;2022-10-18T01:02:39;11.40;33.37
74494;SHT31;62978;51.094;-115.362;2022-10-18T01:05:10;11.20;33.69
74494;SHT31;62978;51.094;-115.362;2022-10-18T01:07:44;11.04;33.99
74494;SHT31;62978;51.094;-115.362;2022-10-18T01:18:58;10.18;35.96
74494;SHT31;62978;51.094;-115.362;2022-10-18T01:22:09;10.02;36.45
74494;SHT31;62978;51.094;-115.362;2022-10-18T01:28:37;9.62;37.19
74494;SHT31;62978;51.094;-115.362;2022-10-18T01:31:32;9.43;37.60
74494;SHT31;62978;51.094;-115.362;2022-10-18T01:34:10;9.27;38.14
74494;SHT31;62978;51.094;-115.362;2022-10-18T01:36:49;9.13;38.46
74494;SHT31;62978;51.094;-115.362;2022-10-18T01:39:23;8.97;38.76
74494;SHT31;62978;51.094;-115.362;2022-10-18T01:41:58;8.84;39.10
74494;SHT31;62978;51.094;-115.362;2022-10-18T01:44:35;8.68;39.33
74494;SHT31;62978;51.094;-115.362;2022-10-18T01:47:06;8.53;39.77
74494;SHT31;62978;51.094;-115.362;2022-10-18T01:49:37;8.39;40.21
74494;SHT31;62978;51.094;-115.362;2022-10-18T01:52:05;8.25;40.30
74494;SHT31;62978;51.094;-115.362;2022-10-18T01:54:40;8.12;40.63
74494;SHT31;62978;51.094;-115.362;2022-10-18T02:00:05;7.89;41.05
74494;SHT31;62978;51.094;-115.362;2022-10-18T02:02:45;7.78;41.44
74494;SHT31;62978;51.094;-115.362;2022-10-18T02:08:42;7.51;41.95
74494;SHT31;62978;51.094;-115.362;2022-10-18T02:11:35;7.39;41.99
74494;SHT31;62978;51.094;-115.362;2022-10-18T02:14:12;7.29;42.17
74494;SHT31;62978;51.094;-115.362;2022-10-18T02:16:43;7.19;42.20
74494;SHT31;62978;51.094;-115.362;2022-10-18T02:19:29;7.12;41.96
74494;SHT31;62978;51.094;-115.362;2022-10-18T02:22:09;7.06;42.22
74494;SHT31;62978;51.094;-115.362;2022-10-18T02:24:43;7.02;42.24
74494;SHT31;62978;51.094;-115.362;2022-10-18T02:27:27;6.96;42.41
74494;SHT31;62978;51.094;-115.362;2022-10-18T02:29:58;6.93;41.85
74494;SHT31;62978;51.094;-115.362;2022-10-18T02:37:54;7.01;41.45
74494;SHT31;62978;51.094;-115.362;2022-10-18T02:40:28;7.06;41.49
74494;SHT31;62978;51.094;-115.362;2022-10-18T02:42:57;7.08;41.44
74494;SHT31;62978;51.094;-115.362;2022-10-18T02:45:25;7.11;41.16
74494;SHT31;62978;51.094;-115.362;2022-10-18T02:47:58;7.13;41.03
74494;SHT31;62978;51.094;-115.362;2022-10-18T02:50:28;7.17;40.55
74494;SHT31;62978;51.094;-115.362;2022-10-18T02:52:55;7.23;40.17
74494;SHT31;62978;51.094;-115.362;2022-10-18T02:55:23;7.32;39.93
74494;SHT31;62978;51.094;-115.362;2022-10-18T02:57:51;7.41;39.95
74494;SHT31;62978;51.094;-115.362;2022-10-18T03:00:19;7.48;40.04
74494;SHT31;62978;51.094;-115.362;2022-10-18T03:02:50;7.51;40.45
74494;SHT31;62978;51.094;-115.362;2022-10-18T03:05:18;7.52;39.96
74494;SHT31;62978;51.094;-115.362;2022-10-18T03:07:46;7.56;40.38
74494;SHT31;62978;51.094;-115.362;2022-10-18T03:10:15;7.56;39.88
74494;SHT31;62978;51.094;-115.362;2022-10-18T03:12:47;7.59;39.65
74494;SHT31;62978;51.094;-115.362;2022-10-18T03:15:14;7.64;39.47
74494;SHT31;62978;51.094;-115.362;2022-10-18T03:17:42;7.71;39.72
74494;SHT31;62978;51.094;-115.362;2022-10-18T03:20:10;7.74;39.32
74494;SHT31;62978;51.094;-115.362;2022-10-18T03:22:38;7.77;39.11
74494;SHT31;62978;51.094;-115.362;2022-10-18T03:25:06;7.82;39.16
74494;SHT31;62978;51.094;-115.362;2022-10-18T03:27:34;7.86;38.95
74494;SHT31;62978;51.094;-115.362;2022-10-18T03:30:03;7.89;38.73
74494;SHT31;62978;51.094;-115.362;2022-10-18T03:32:31;7.95;38.72
74494;SHT31;62978;51.094;-115.362;2022-10-18T03:35:00;8.01;38.53
74494;SHT31;62978;51.094;-115.362;2022-10-18T03:37:29;8.09;38.05
74494;SHT31;62978;51.094;-115.362;2022-10-18T03:40:00;8.16;37.82
74494;SHT31;62978;51.094;-115.362;2022-10-18T03:42:29;8.23;37.57
74494;SHT31;62978;51.094;-115.362;2022-10-18T03:44:57;8.29;37.46
74494;SHT31;62978;51.094;-115.362;2022-10-18T03:47:25;8.33;37.23
74494;SHT31;62978;51.094;-115.362;2022-10-18T03:49:53;8.35;37.16
74494;SHT31;62978;51.094;-115.362;2022-10-18T03:52:21;8.36;37.03
74494;SHT31;62978;51.094;-115.362;2022-10-18T03:54:52;8.36;37.02
74494;SHT31;62978;51.094;-115.362;2022-10-18T03:57:20;8.36;37.02
74494;SHT31;62978;51.094;-115.362;2022-10-18T03:59:51;8.36;36.94
74494;SHT31;62978;51.094;-115.362;2022-10-18T04:02:19;8.35;36.92
74494;SHT31;62978;51.094;-115.362;2022-10-18T04:04:47;8.33;36.98
74494;SHT31;62978;51.094;-115.362;2022-10-18T04:07:15;8.33;36.89
74494;SHT31;62978;51.094;-115.362;2022-10-18T04:09:46;8.32;36.92
74494;SHT31;62978;51.094;-115.362;2022-10-18T04:12:13;8.32;36.89
74494;SHT31;62978;51.094;-115.362;2022-10-18T04:14:44;8.32;36.90
74494;SHT31;62978;51.094;-115.362;2022-10-18T04:17:11;8.33;36.89
74494;SHT31;62978;51.094;-115.362;2022-10-18T04:19:39;8.34;36.81
74494;SHT31;62978;51.094;-115.362;2022-10-18T04:22:07;8.33;36.89
74494;SHT31;62978;51.094;-115.362;2022-10-18T04:24:37;8.33;36.95
74494;SHT31;62978;51.094;-115.362;2022-10-18T04:27:05;8.30;36.84
74494;SHT31;62978;51.094;-115.362;2022-10-18T04:29:36;8.28;36.85
74494;SHT31;62978;51.094;-115.362;2022-10-18T04:32:04;8.25;36.89
74494;SHT31;62978;51.094;-115.362;2022-10-18T04:34:32;8.24;36.85
74494;SHT31;62978;51.094;-115.362;2022-10-18T04:36:59;8.20;36.88
74494;SHT31;62978;51.094;-115.362;2022-10-18T04:39:26;8.18;37.03
74494;SHT31;62978;51.094;-115.362;2022-10-18T04:41:54;8.12;37.17
74494;SHT31;62978;51.094;-115.362;2022-10-18T04:44:21;8.08;37.17
74494;SHT31;62978;51.094;-115.362;2022-10-18T04:46:49;8.01;37.34
74494;SHT31;62978;51.094;-115.362;2022-10-18T04:49:17;7.96;37.39
74494;SHT31;62978;51.094;-115.362;2022-10-18T04:51:45;7.92;37.39
74494;SHT31;62978;51.094;-115.362;2022-10-18T04:54:13;7.89;37.43
74494;SHT31;62978;51.094;-115.362;2022-10-18T04:56:41;7.86;37.50
74494;SHT31;62978;51.094;-115.362;2022-10-18T04:59:09;7.81;37.52
74494;SHT31;62978;51.094;-115.362;2022-10-18T05:01:37;7.78;37.60
74494;SHT31;62978;51.094;-115.362;2022-10-18T05:04:05;7.73;37.61
74494;SHT31;62978;51.094;-115.362;2022-10-18T05:06:33;7.69;37.61
74494;SHT31;62978;51.094;-115.362;2022-10-18T05:09:01;7.65;37.67
74494;SHT31;62978;51.094;-115.362;2022-10-18T05:11:29;7.64;37.63
74494;SHT31;62978;51.094;-115.362;2022-10-18T05:13:56;7.62;37.73
74494;SHT31;62978;51.094;-115.362;2022-10-18T05:16:24;7.59;37.69
74494;SHT31;62978;51.094;-115.362;2022-10-18T05:18:52;7.55;37.85
74494;SHT31;62978;51.094;-115.362;2022-10-18T05:21:20;7.50;37.92
74494;SHT31;62978;51.094;-115.362;2022-10-18T05:23:47;7.45;37.98
74494;SHT31;62978;51.094;-115.362;2022-10-18T05:26:16;7.41;38.06
74494;SHT31;62978;51.094;-115.362;2022-10-18T05:28:43;7.39;38.23
74494;SHT31;62978;51.094;-115.362;2022-10-18T05:31:10;7.34;38.19
74494;SHT31;62978;51.094;-115.362;2022-10-18T05:33:37;7.29;38.31
74494;SHT31;62978;51.094;-115.362;2022-10-18T05:36:05;7.24;38.45
74494;SHT31;62978;51.094;-115.362;2022-10-18T05:38:33;7.23;38.54
74494;SHT31;62978;51.094;-115.362;2022-10-18T05:41:06;7.22;38.69
74494;SHT31;62978;51.094;-115.362;2022-10-18T05:43:35;7.19;38.75
74494;SHT31;62978;51.094;-115.362;2022-10-18T05:46:02;7.18;38.86
74494;SHT31;62978;51.094;-115.362;2022-10-18T05:48:32;7.13;38.90
74494;SHT31;62978;51.094;-115.362;2022-10-18T05:50:59;7.09;38.83
74494;SHT31;62978;51.094;-115.362;2022-10-18T05:53:27;7.03;38.84
74494;SHT31;62978;51.094;-115.362;2022-10-18T05:55:54;7.01;38.83
74494;SHT31;62978;51.094;-115.362;2022-10-18T05:58:26;6.97;38.95
74494;SHT31;62978;51.094;-115.362;2022-10-18T06:00:53;6.92;39.01
74494;SHT31;62978;51.094;-115.362;2022-10-18T06:03:25;6.88;39.22
74494;SHT31;62978;51.094;-115.362;2022-10-18T06:06:05;6.83;39.40
74494;SHT31;62978;51.094;-115.362;2022-10-18T06:08:36;6.76;39.54
74494;SHT31;62978;51.094;-115.362;2022-10-18T06:11:09;6.72;39.65
74494;SHT31;62978;51.094;-115.362;2022-10-18T06:13:45;6.67;39.66
74494;SHT31;62978;51.094;-115.362;2022-10-18T06:16:15;6.61;39.77
74494;SHT31;62978;51.094;-115.362;2022-10-18T06:18:49;6.55;39.73
74494;SHT31;62978;51.094;-115.362;2022-10-18T06:21:19;6.49;39.88
74494;SHT31;62978;51.094;-115.362;2022-10-18T06:23:51;6.45;39.96
74494;SHT31;62978;51.094;-115.362;2022-10-18T06:26:23;6.41;39.95
74494;SHT31;62978;51.094;-115.362;2022-10-18T06:28:52;6.33;40.11
74494;SHT31;62978;51.094;-115.362;2022-10-18T06:31:20;6.28;40.21
74494;SHT31;62978;51.094;-115.362;2022-10-18T06:33:47;6.21;40.35
74494;SHT31;62978;51.094;-115.362;2022-10-18T06:36:16;6.16;40.50
74494;SHT31;62978;51.094;-115.362;2022-10-18T06:38:46;6.10;40.62
74494;SHT31;62978;51.094;-115.362;2022-10-18T06:41:14;6.07;40.60
74494;SHT31;62978;51.094;-115.362;2022-10-18T06:43:47;6.04;40.64
74494;SHT31;62978;51.094;-115.362;2022-10-18T06:46:15;6.00;40.70
74494;SHT31;62978;51.094;-115.362;2022-10-18T06:48:42;5.97;40.74
74494;SHT31;62978;51.094;-115.362;2022-10-18T06:51:10;5.94;40.70
74494;SHT31;62978;51.094;-115.362;2022-10-18T06:53:38;5.91;40.78
74494;SHT31;62978;51.094;-115.362;2022-10-18T06:56:07;5.87;40.90
74494;SHT31;62978;51.094;-115.362;2022-10-18T06:58:38;5.86;40.94
74494;SHT31;62978;51.094;-115.362;2022-10-18T07:01:06;5.82;41.00
74494;SHT31;62978;51.094;-115.362;2022-10-18T07:03:37;5.79;41.13
74494;SHT31;62978;51.094;-115.362;2022-10-18T07:06:06;5.76;41.20
74494;SHT31;62978;51.094;-115.362;2022-10-18T07:08:35;5.74;41.27
74494;SHT31;62978;51.094;-115.362;2022-10-18T07:11:04;5.70;41.32
74494;SHT31;62978;51.094;-115.362;2022-10-18T07:13:33;5.66;41.40
74494;SHT31;62978;51.094;-115.362;2022-10-18T07:16:01;5.63;41.51
74494;SHT31;62978;51.094;-115.362;2022-10-18T07:18:41;5.60;41.60
74494;SHT31;62978;51.094;-115.362;2022-10-18T07:21:17;5.57;41.67
74494;SHT31;62978;51.094;-115.362;2022-10-18T07:23:47;5.55;41.70
74494;SHT31;62978;51.094;-115.362;2022-10-18T07:26:23;5.52;41.77
74494;SHT31;62978;51.094;-115.362;2022-10-18T07:28:56;5.50;41.93
74494;SHT31;62978;51.094;-115.362;2022-10-18T07:31:32;5.48;41.98
74494;SHT31;62978;51.094;-115.362;2022-10-18T07:33:59;5.45;42.04
74494;SHT31;62978;51.094;-115.362;2022-10-18T07:36:29;5.42;42.15
74494;SHT31;62978;51.094;-115.362;2022-10-18T07:38:57;5.38;42.30
74494;SHT31;62978;51.094;-115.362;2022-10-18T07:41:24;5.35;42.39
74494;SHT31;62978;51.094;-115.362;2022-10-18T07:43:53;5.30;42.48
74494;SHT31;62978;51.094;-115.362;2022-10-18T07:46:20;5.28;42.53
74494;SHT31;62978;51.094;-115.362;2022-10-18T07:48:48;5.25;42.70
74494;SHT31;62978;51.094;-115.362;2022-10-18T07:51:17;5.24;42.68
74494;SHT31;62978;51.094;-115.362;2022-10-18T07:53:45;5.20;42.79
74494;SHT31;62978;51.094;-115.362;2022-10-18T07:56:14;5.16;42.95
74494;SHT31;62978;51.094;-115.362;2022-10-18T07:58:45;5.14;42.97
74494;SHT31;62978;51.094;-115.362;2022-10-18T08:01:16;5.13;42.89
74494;SHT31;62978;51.094;-115.362;2022-10-18T08:03:44;5.10;43.06
74494;SHT31;62978;51.094;-115.362;2022-10-18T08:06:12;5.08;43.08
74494;SHT31;62978;51.094;-115.362;2022-10-18T08:08:43;5.03;43.16
74494;SHT31;62978;51.094;-115.362;2022-10-18T08:11:13;5.01;43.19
74494;SHT31;62978;51.094;-115.362;2022-10-18T08:13:46;4.97;43.34
74494;SHT31;62978;51.094;-115.362;2022-10-18T08:16:15;4.95;43.42
74494;SHT31;62978;51.094;-115.362;2022-10-18T08:18:47;4.91;43.45
74494;SHT31;62978;51.094;-115.362;2022-10-18T08:21:16;4.88;43.51
74494;SHT31;62978;51.094;-115.362;2022-10-18T08:23:45;4.86;43.56
74494;SHT31;62978;51.094;-115.362;2022-10-18T08:26:14;4.83;43.67
74494;SHT31;62978;51.094;-115.362;2022-10-18T08:28:44;4.81;43.69
74494;SHT31;62978;51.094;-115.362;2022-10-18T08:31:12;4.76;43.80
74494;SHT31;62978;51.094;-115.362;2022-10-18T08:33:43;4.73;43.90
74494;SHT31;62978;51.094;-115.362;2022-10-18T08:36:11;4.70;44.03
74494;SHT31;62978;51.094;-115.362;2022-10-18T08:38:41;4.66;44.13
74494;SHT31;62978;51.094;-115.362;2022-10-18T08:47:02;4.53;44.58
74494;SHT31;62978;51.094;-115.362;2022-10-18T08:49:58;4.49;44.69
74494;SHT31;62978;51.094;-115.362;2022-10-18T08:56:16;4.40;44.79
74494;SHT31;62978;51.094;-115.362;2022-10-18T08:58:48;4.37;44.90
74494;SHT31;62978;51.094;-115.362;2022-10-18T09:04:18;4.34;44.92
74494;SHT31;62978;51.094;-115.362;2022-10-18T09:10:05;4.27;45.15
74494;SHT31;62978;51.094;-115.362;2022-10-18T09:15:19;4.18;45.34
74494;SHT31;62978;51.094;-115.362;2022-10-18T09:18:21;4.13;45.43
74494;SHT31;62978;51.094;-115.362;2022-10-18T09:24:17;4.04;45.62
74494;SHT31;62978;51.094;-115.362;2022-10-18T09:27:02;4.00;45.70
74494;SHT31;62978;51.094;-115.362;2022-10-18T09:35:27;3.87;45.91
74494;SHT31;62978;51.094;-115.362;2022-10-18T09:38:09;3.83;46.03
74494;SHT31;62978;51.094;-115.362;2022-10-18T09:41:23;3.82;46.01
74494;SHT31;62978;51.094;-115.362;2022-10-18T09:46:40;3.69;46.46
74494;SHT31;62978;51.094;-115.362;2022-10-18T09:49:21;3.64;47.09
74494;SHT31;62978;51.094;-115.362;2022-10-18T09:52:05;3.57;47.56
74494;SHT31;62978;51.094;-115.362;2022-10-18T09:54:42;3.51;47.39
74494;SHT31;62978;51.094;-115.362;2022-10-18T09:57:39;3.44;47.91
74494;SHT31;62978;51.094;-115.362;2022-10-18T10:00:20;3.36;48.03
74494;SHT31;62978;51.094;-115.362;2022-10-18T10:03:12;3.28;47.98
74494;SHT31;62978;51.094;-115.362;2022-10-18T10:05:40;3.25;47.83
74494;SHT31;62978;51.094;-115.362;2022-10-18T10:08:09;3.19;47.93
74494;SHT31;62978;51.094;-115.362;2022-10-18T10:10:40;3.14;48.00
74494;SHT31;62978;51.094;-115.362;2022-10-18T10:16:00;3.05;48.21
74494;SHT31;62978;51.094;-115.362;2022-10-18T10:18:32;3.01;48.54
74494;SHT31;62978;51.094;-115.362;2022-10-18T10:21:04;2.97;48.61
74494;SHT31;62978;51.094;-115.362;2022-10-18T10:23:44;2.92;49.09
74494;SHT31;62978;51.094;-115.362;2022-10-18T10:29:03;2.75;49.69
74494;SHT31;62978;51.094;-115.362;2022-10-18T10:32:29;2.64;49.99
74494;SHT31;62978;51.094;-115.362;2022-10-18T10:38:04;2.48;50.60
74494;SHT31;62978;51.094;-115.362;2022-10-18T10:40:32;2.41;50.67
74494;SHT31;62978;51.094;-115.362;2022-10-18T10:48:25;2.17;51.46
74494;SHT31;62978;51.094;-115.362;2022-10-18T10:51:01;2.08;51.64
74494;SHT31;62978;51.094;-115.362;2022-10-18T10:53:36;1.99;51.94
74494;SHT31;62978;51.094;-115.362;2022-10-18T10:56:23;1.91;52.21
74494;SHT31;62978;51.094;-115.362;2022-10-18T10:58:55;1.82;52.05
74494;SHT31;62978;51.094;-115.362;2022-10-18T11:01:44;1.73;52.20
74494;SHT31;62978;51.094;-115.362;2022-10-18T11:16:12;1.29;53.65
74494;SHT31;62978;51.094;-115.362;2022-10-18T11:22:33;1.09;54.43
74494;SHT31;62978;51.094;-115.362;2022-10-18T11:25:22;1.01;54.50
74494;SHT31;62978;51.094;-115.362;2022-10-18T11:28:08;0.94;54.60
74494;SHT31;62978;51.094;-115.362;2022-10-18T11:33:45;0.81;54.94
74494;SHT31;62978;51.094;-115.362;2022-10-18T11:42:52;0.62;55.68
74494;SHT31;62978;51.094;-115.362;2022-10-18T11:51:38;0.38;56.31
74494;SHT31;62978;51.094;-115.362;2022-10-18T12:06:23;0.04;57.31
74494;SHT31;62978;51.094;-115.362;2022-10-18T12:09:00;-0.02;57.53
74494;SHT31;62978;51.094;-115.362;2022-10-18T12:11:55;-0.07;57.71
74494;SHT31;62978;51.094;-115.362;2022-10-18T12:17:19;-0.19;58.13
74494;SHT31;62978;51.094;-115.362;2022-10-18T12:19:53;-0.24;58.25
74494;SHT31;62978;51.094;-115.362;2022-10-18T12:22:33;-0.29;58.32
74494;SHT31;62978;51.094;-115.362;2022-10-18T12:25:21;-0.36;58.42
74494;SHT31;62978;51.094;-115.362;2022-10-18T12:28:06;-0.40;58.73
74494;SHT31;62978;51.094;-115.362;2022-10-18T12:30:45;-0.46;58.93
74494;SHT31;62978;51.094;-115.362;2022-10-18T12:33:26;-0.49;59.04
74494;SHT31;62978;51.094;-115.362;2022-10-18T12:39:07;-0.60;59.47
74494;SHT31;62978;51.094;-115.362;2022-10-18T12:41:45;-0.65;59.69
74494;SHT31;62978;51.094;-115.362;2022-10-18T12:47:00;-0.77;59.77
74494;SHT31;62978;51.094;-115.362;2022-10-18T12:49:31;-0.80;59.85
74494;SHT31;62978;51.094;-115.362;2022-10-18T12:52:06;-0.84;60.09
74494;SHT31;62978;51.094;-115.362;2022-10-18T12:55:00;-0.89;60.39
74494;SHT31;62978;51.094;-115.362;2022-10-18T13:34:53;-1.47;62.99
74494;SHT31;62978;51.094;-115.362;2022-10-18T13:37:22;-1.50;63.06
74494;SHT31;62978;51.094;-115.362;2022-10-18T13:39:51;-1.53;63.28
74494;SHT31;62978;51.094;-115.362;2022-10-18T13:42:48;-1.58;63.36
74494;SHT31;62978;51.094;-115.362;2022-10-18T13:50:58;-1.66;63.97
74494;SHT31;62978;51.094;-115.362;2022-10-18T13:57:21;-1.72;63.92
74494;SHT31;62978;51.094;-115.362;2022-10-18T14:11:40;-1.83;64.59
74494;SHT31;62978;51.094;-115.362;2022-10-18T14:14:50;-1.78;64.59
74494;SHT31;62978;51.094;-115.362;2022-10-18T14:17:26;-1.74;64.51
74494;SHT31;62978;51.094;-115.362;2022-10-18T14:22:43;-1.60;64.41
74494;SHT31;62978;51.094;-115.362;2022-10-18T14:25:36;-1.51;64.28
74494;SHT31;62978;51.094;-115.362;2022-10-18T14:30:52;-1.33;64.23
74494;SHT31;62978;51.094;-115.362;2022-10-18T14:43:47;-1.22;63.89
74494;SHT31;62978;51.094;-115.362;2022-10-18T14:46:17;-1.24;63.90
74494;SHT31;62978;51.094;-115.362;2022-10-18T14:48:51;-1.25;64.01
74494;SHT31;62978;51.094;-115.362;2022-10-18T14:51:22;-1.27;64.22
74494;SHT31;62978;51.094;-115.362;2022-10-18T14:53:51;-1.26;64.20
74494;SHT31;62978;51.094;-115.362;2022-10-18T14:58:57;-1.29;64.21
74494;SHT31;62978;51.094;-115.362;2022-10-18T15:01:31;-1.31;64.29
74494;SHT31;62978;51.094;-115.362;2022-10-18T15:04:04;-1.30;64.49
74494;SHT31;62978;51.094;-115.362;2022-10-18T15:06:40;-1.31;64.43
74494;SHT31;62978;51.094;-115.362;2022-10-18T15:09:10;-1.31;64.52
74494;SHT31;62978;51.094;-115.362;2022-10-18T15:11:39;-1.30;64.59
74494;SHT31;62978;51.094;-115.362;2022-10-18T15:14:12;-1.28;64.73
74494;SHT31;62978;51.094;-115.362;2022-10-18T15:16:43;-1.25;64.91
74494;SHT31;62978;51.094;-115.362;2022-10-18T15:27:52;-1.08;65.29
74494;SHT31;62978;51.094;-115.362;2022-10-18T15:32:55;-0.95;65.86
74494;SHT31;62978;51.094;-115.362;2022-10-18T15:35:27;-0.84;65.69
74494;SHT31;62978;51.094;-115.362;2022-10-18T15:38:11;-0.72;65.21
74494;SHT31;62978;51.094;-115.362;2022-10-18T15:40:40;-0.63;65.00
74494;SHT31;62978;51.094;-115.362;2022-10-18T15:48:40;-0.39;64.70
74494;SHT31;62978;51.094;-115.362;2022-10-18T15:51:12;-0.29;64.53
74494;SHT31;62978;51.094;-115.362;2022-10-18T15:54:17;-0.14;63.86
74494;SHT31;62978;51.094;-115.362;2022-10-18T15:56:54;-0.04;63.61
74494;SHT31;62978;51.094;-115.362;2022-10-18T15:59:23;0.04;63.50
74494;SHT31;62978;51.094;-115.362;2022-10-18T16:01:55;0.17;63.24
74494;SHT31;62978;51.094;-115.362;2022-10-18T16:04:30;0.32;62.90
74494;SHT31;62978;51.094;-115.362;2022-10-18T16:06:58;0.56;62.39
74494;SHT31;62978;51.094;-115.362;2022-10-18T16:09:26;0.80;61.89
74494;SHT31;62978;51.094;-115.362;2022-10-18T16:11:54;0.98;61.35
74494;SHT31;62978;51.094;-115.362;2022-10-18T16:14:23;1.17;60.91
74494;SHT31;62978;51.094;-115.362;2022-10-18T16:17:00;1.31;60.54
74494;SHT31;62978;51.094;-115.362;2022-10-18T16:19:30;1.48;60.22
74494;SHT31;62978;51.094;-115.362;2022-10-18T16:21:59;1.68;59.58
74494;SHT31;62978;51.094;-115.362;2022-10-18T16:24:26;1.97;58.65
74494;SHT31;62978;51.094;-115.362;2022-10-18T16:26:53;2.23;57.95
74494;SHT31;62978;51.094;-115.362;2022-10-18T16:29:21;2.48;57.32
74494;SHT31;62978;51.094;-115.362;2022-10-18T16:31:50;2.66;56.77
74494;SHT31;62978;51.094;-115.362;2022-10-18T16:34:21;2.83;56.35
74494;SHT31;62978;51.094;-115.362;2022-10-18T16:36:51;3.08;55.63
74494;SHT31;62978;51.094;-115.362;2022-10-18T16:39:19;3.34;55.19
74494;SHT31;62978;51.094;-115.362;2022-10-18T16:41:47;3.56;54.38
74494;SHT31;62978;51.094;-115.362;2022-10-18T16:44:15;3.79;53.38
74494;SHT31;62978;51.094;-115.362;2022-10-18T16:46:43;4.07;52.64
74494;SHT31;62978;51.094;-115.362;2022-10-18T16:49:21;4.33;52.30
74494;SHT31;62978;51.094;-115.362;2022-10-18T16:51:50;4.53;51.93
74494;SHT31;62978;51.094;-115.362;2022-10-18T16:54:19;4.72;51.45
74494;SHT31;62978;51.094;-115.362;2022-10-18T16:56:47;4.93;51.02
74494;SHT31;62978;51.094;-115.362;2022-10-18T16:59:22;5.11;50.54
74494;SHT31;62978;51.094;-115.362;2022-10-18T17:01:53;5.31;49.91
74494;SHT31;62978;51.094;-115.362;2022-10-18T17:04:20;5.53;49.46
74494;SHT31;62978;51.094;-115.362;2022-10-18T17:06:48;5.74;48.84
74494;SHT31;62978;51.094;-115.362;2022-10-18T17:09:16;5.93;48.25
74494;SHT31;62978;51.094;-115.362;2022-10-18T17:11:43;6.05;47.74
74494;SHT31;62978;51.094;-115.362;2022-10-18T17:14:10;6.22;47.03
74494;SHT31;62978;51.094;-115.362;2022-10-18T17:16:37;6.45;46.42
74494;SHT31;62978;51.094;-115.362;2022-10-18T17:19:06;6.92;45.62
74494;SHT31;62978;51.094;-115.362;2022-10-18T17:21:36;7.84;44.27
74494;SHT31;62978;51.094;-115.362;2022-10-18T17:24:03;9.00;42.26
74494;SHT31;62978;51.094;-115.362;2022-10-18T17:26:31;9.75;41.20
74494;SHT31;62978;51.094;-115.362;2022-10-18T17:29:05;9.88;40.48
74494;SHT31;62978;51.094;-115.362;2022-10-18T17:31:35;9.81;40.46
74494;SHT31;62978;51.094;-115.362;2022-10-18T17:34:02;9.85;40.16
74494;SHT31;62978;51.094;-115.362;2022-10-18T17:36:30;9.95;39.69
74494;SHT31;62978;51.094;-115.362;2022-10-18T17:38:58;9.99;39.11
74494;SHT31;62978;51.094;-115.362;2022-10-18T17:41:26;9.93;38.76
74494;SHT31;62978;51.094;-115.362;2022-10-18T17:43:53;9.85;38.81
74494;SHT31;62978;51.094;-115.362;2022-10-18T17:46:21;9.75;38.87
74494;SHT31;62978;51.094;-115.362;2022-10-18T17:48:48;9.70;38.31
74494;SHT31;62978;51.094;-115.362;2022-10-18T17:51:15;9.64;38.28
74494;SHT31;62978;51.094;-115.362;2022-10-18T17:53:43;9.56;38.15
74494;SHT31;62978;51.094;-115.362;2022-10-18T17:56:11;9.49;38.15
74494;SHT31;62978;51.094;-115.362;2022-10-18T17:58:39;9.46;38.22
74494;SHT31;62978;51.094;-115.362;2022-10-18T18:01:15;9.48;38.05
74494;SHT31;62978;51.094;-115.362;2022-10-18T18:03:47;9.50;37.85
74494;SHT31;62978;51.094;-115.362;2022-10-18T18:08:48;9.55;37.71
74494;SHT31;62978;51.094;-115.362;2022-10-18T18:11:15;9.58;37.49
74494;SHT31;62978;51.094;-115.362;2022-10-18T18:13:43;9.62;37.50
74494;SHT31;62978;51.094;-115.362;2022-10-18T18:16:15;9.68;37.41
74494;SHT31;62978;51.094;-115.362;2022-10-18T18:18:47;9.77;37.44
74494;SHT31;62978;51.094;-115.362;2022-10-18T18:21:17;9.85;37.55
74494;SHT31;62978;51.094;-115.362;2022-10-18T18:23:46;9.95;36.99
74494;SHT31;62978;51.094;-115.362;2022-10-18T18:26:14;10.14;36.87
74494;SHT31;62978;51.094;-115.362;2022-10-18T18:28:43;10.27;36.61
74494;SHT31;62978;51.094;-115.362;2022-10-18T18:31:20;10.41;36.24
74494;SHT31;62978;51.094;-115.362;2022-10-18T18:33:50;10.61;35.65
74494;SHT31;62978;51.094;-115.362;2022-10-18T18:36:20;10.79;35.59
74494;SHT31;62978;51.094;-115.362;2022-10-18T18:38:53;10.92;35.51
74494;SHT31;62978;51.094;-115.362;2022-10-18T18:41:21;11.03;35.54
74494;SHT31;62978;51.094;-115.362;2022-10-18T18:43:52;11.16;35.38
74494;SHT31;62978;51.094;-115.362;2022-10-18T18:46:23;11.29;35.29
74494;SHT31;62978;51.094;-115.362;2022-10-18T18:48:52;11.45;34.72
74494;SHT31;62978;51.094;-115.362;2022-10-18T18:51:22;11.67;34.54
74494;SHT31;62978;51.094;-115.362;2022-10-18T18:53:50;11.80;34.50
74494;SHT31;62978;51.094;-115.362;2022-10-18T18:56:20;11.92;34.30
74494;SHT31;62978;51.094;-115.362;2022-10-18T18:58:51;12.06;33.92
74494;SHT31;62978;51.094;-115.362;2022-10-18T19:01:19;12.27;33.53
74494;SHT31;62978;51.094;-115.362;2022-10-18T19:03:53;12.46;33.58
74494;SHT31;62978;51.094;-115.362;2022-10-18T19:06:23;12.56;33.30
74494;SHT31;62978;51.094;-115.362;2022-10-18T19:08:52;12.70;32.91